首页
METAR-TAF:

METAR-TAF

机场 :

法赫德国王国际机场

达曼, 沙特阿拉伯

纬度: 26-28N, 经度: 049-47E, 海拔: 22米

当前天气观测

该预报发布于19分钟前的10:00 UTC
风速13节,风向
温度 24°C
湿度 25%
气压 1014 hPa
能见度10公里或以上
1500米以下无云,无积雨云

METAR: OEDF 191000Z 17013KT CAVOK 24/03 Q1014 NOSIG

时间: 13:19 (10:19 UTC)

预报

该预报发布于6小时和49分钟前的03:30 UTC
预报有效从19日的 06点(UTC)到 20日的 12点(UTC)
风速8节,风向南转西南
能见度10公里或以上
1500米以下无云,无积雨云
成为
从 19日的 10点(UTC)到 19日的 12点(UTC)
风速15节,风向北转西北

TAF: OEDF 190330Z 1906/2012 20008KT CAVOK BECMG 1910/1912 33015KT

超过4000个机场的气象观测和天气预报(METAR&TAF报告)。

可查询的气象台以黄色和红色小点在地图上表示。

将鼠标移到小点上方,可查看气象台名称。

然后点击查看天气观测和预报。

如需切换地图:点击带黑十字的绿色按钮放大地图;点击带横线的绿色按钮缩小地图;或者点击绿色箭头查看邻近地区的地图。


METAR-TAF: